sensor_id;sensor_type;location;lat;lon;timestamp;temperature;humidity
40151;DHT22;25866;52.420;10.640;2022-07-05T00:01:10;17.40;99.00
40151;DHT22;25866;52.420;10.640;2022-07-05T00:03:36;17.30;99.30
40151;DHT22;25866;52.420;10.640;2022-07-05T00:06:02;17.30;99.50
40151;DHT22;25866;52.420;10.640;2022-07-05T00:08:28;17.20;99.80
40151;DHT22;25866;52.420;10.640;2022-07-05T00:10:54;17.10;99.90
40151;DHT22;25866;52.420;10.640;2022-07-05T00:13:20;17.00;99.90
40151;DHT22;25866;52.420;10.640;2022-07-05T00:15:46;16.90;99.90
40151;DHT22;25866;52.420;10.640;2022-07-05T00:18:12;16.80;99.90
40151;DHT22;25866;52.420;10.640;2022-07-05T00:20:37;16.60;99.90
40151;DHT22;25866;52.420;10.640;2022-07-05T00:23:06;16.70;99.90
40151;DHT22;25866;52.420;10.640;2022-07-05T00:25:32;16.60;99.90
40151;DHT22;25866;52.420;10.640;2022-07-05T00:27:58;16.50;99.90
40151;DHT22;25866;52.420;10.640;2022-07-05T00:30:24;16.50;99.90
40151;DHT22;25866;52.420;10.640;2022-07-05T00:32:51;16.40;99.90
40151;DHT22;25866;52.420;10.640;2022-07-05T00:35:17;16.40;99.90
40151;DHT22;25866;52.420;10.640;2022-07-05T00:37:42;16.50;99.90
40151;DHT22;25866;52.420;10.640;2022-07-05T00:40:08;16.60;99.90
40151;DHT22;25866;52.420;10.640;2022-07-05T00:42:35;16.60;99.90
40151;DHT22;25866;52.420;10.640;2022-07-05T00:45:03;16.60;99.90
40151;DHT22;25866;52.420;10.640;2022-07-05T00:47:29;16.60;99.90
40151;DHT22;25866;52.420;10.640;2022-07-05T00:49:55;16.50;99.90
40151;DHT22;25866;52.420;10.640;2022-07-05T00:52:21;16.40;99.90
40151;DHT22;25866;52.420;10.640;2022-07-05T00:54:48;16.30;99.90
40151;DHT22;25866;52.420;10.640;2022-07-05T00:57:14;16.20;99.90
40151;DHT22;25866;52.420;10.640;2022-07-05T00:59:40;16.20;99.90
40151;DHT22;25866;52.420;10.640;2022-07-05T01:02:06;16.30;99.90
40151;DHT22;25866;52.420;10.640;2022-07-05T01:04:32;16.10;99.90
40151;DHT22;25866;52.420;10.640;2022-07-05T01:06:57;16.00;99.90
40151;DHT22;25866;52.420;10.640;2022-07-05T01:09:24;16.10;99.90
40151;DHT22;25866;52.420;10.640;2022-07-05T01:11:51;16.00;99.90
40151;DHT22;25866;52.420;10.640;2022-07-05T01:14:19;16.00;99.90
40151;DHT22;25866;52.420;10.640;2022-07-05T01:16:45;15.90;99.90
40151;DHT22;25866;52.420;10.640;2022-07-05T01:19:12;15.90;99.90
40151;DHT22;25866;52.420;10.640;2022-07-05T01:21:42;15.80;99.90
40151;DHT22;25866;52.420;10.640;2022-07-05T01:24:10;15.80;99.90
40151;DHT22;25866;52.420;10.640;2022-07-05T01:26:37;15.90;99.90
40151;DHT22;25866;52.420;10.640;2022-07-05T01:29:05;15.80;99.90
40151;DHT22;25866;52.420;10.640;2022-07-05T01:31:32;15.80;99.90
40151;DHT22;25866;52.420;10.640;2022-07-05T01:33:59;15.70;99.90
40151;DHT22;25866;52.420;10.640;2022-07-05T01:36:25;15.50;99.90
40151;DHT22;25866;52.420;10.640;2022-07-05T01:38:51;15.40;99.90
40151;DHT22;25866;52.420;10.640;2022-07-05T01:41:17;15.50;99.90
40151;DHT22;25866;52.420;10.640;2022-07-05T01:43:44;15.60;99.90
40151;DHT22;25866;52.420;10.640;2022-07-05T01:46:11;15.60;99.90
40151;DHT22;25866;52.420;10.640;2022-07-05T01:48:39;15.50;99.90
40151;DHT22;25866;52.420;10.640;2022-07-05T01:51:10;15.50;99.90
40151;DHT22;25866;52.420;10.640;2022-07-05T01:53:39;15.40;99.90
40151;DHT22;25866;52.420;10.640;2022-07-05T01:56:06;15.50;99.90
40151;DHT22;25866;52.420;10.640;2022-07-05T01:58:32;15.50;99.90
40151;DHT22;25866;52.420;10.640;2022-07-05T02:00:58;15.50;99.90
40151;DHT22;25866;52.420;10.640;2022-07-05T02:03:25;15.50;99.90
40151;DHT22;25866;52.420;10.640;2022-07-05T02:05:51;15.30;99.90
40151;DHT22;25866;52.420;10.640;2022-07-05T02:08:18;15.30;99.90
40151;DHT22;25866;52.420;10.640;2022-07-05T02:10:45;15.20;99.90
40151;DHT22;25866;52.420;10.640;2022-07-05T02:13:11;15.20;99.90
40151;DHT22;25866;52.420;10.640;2022-07-05T02:15:40;15.20;99.90
40151;DHT22;25866;52.420;10.640;2022-07-05T02:18:08;15.20;99.90
40151;DHT22;25866;52.420;10.640;2022-07-05T02:20:34;15.20;99.90
40151;DHT22;25866;52.420;10.640;2022-07-05T02:23:00;15.20;99.90
40151;DHT22;25866;52.420;10.640;2022-07-05T02:25:30;15.20;99.90
40151;DHT22;25866;52.420;10.640;2022-07-05T02:27:56;15.20;99.90
40151;DHT22;25866;52.420;10.640;2022-07-05T02:30:22;15.10;99.90
40151;DHT22;25866;52.420;10.640;2022-07-05T02:32:47;15.10;99.90
40151;DHT22;25866;52.420;10.640;2022-07-05T02:35:13;15.10;99.90
40151;DHT22;25866;52.420;10.640;2022-07-05T02:37:39;14.90;99.90
40151;DHT22;25866;52.420;10.640;2022-07-05T02:40:11;14.90;99.90
40151;DHT22;25866;52.420;10.640;2022-07-05T02:42:38;15.00;99.90
40151;DHT22;25866;52.420;10.640;2022-07-05T02:45:05;14.90;99.90
40151;DHT22;25866;52.420;10.640;2022-07-05T02:47:32;14.80;99.90
40151;DHT22;25866;52.420;10.640;2022-07-05T02:49:59;14.60;99.90
40151;DHT22;25866;52.420;10.640;2022-07-05T02:52:25;14.50;99.90
40151;DHT22;25866;52.420;10.640;2022-07-05T02:54:51;14.60;99.90
40151;DHT22;25866;52.420;10.640;2022-07-05T02:57:16;14.70;99.90
40151;DHT22;25866;52.420;10.640;2022-07-05T02:59:42;14.80;99.90
40151;DHT22;25866;52.420;10.640;2022-07-05T03:02:08;14.70;99.90
40151;DHT22;25866;52.420;10.640;2022-07-05T03:04:33;14.60;99.90
40151;DHT22;25866;52.420;10.640;2022-07-05T03:06:59;14.70;99.90
40151;DHT22;25866;52.420;10.640;2022-07-05T03:09:25;14.70;99.90
40151;DHT22;25866;52.420;10.640;2022-07-05T03:11:50;14.60;99.90
40151;DHT22;25866;52.420;10.640;2022-07-05T03:14:16;14.50;99.90
40151;DHT22;25866;52.420;10.640;2022-07-05T03:16:42;14.60;99.90
40151;DHT22;25866;52.420;10.640;2022-07-05T03:19:10;14.50;99.90
40151;DHT22;25866;52.420;10.640;2022-07-05T03:21:37;14.60;99.90
40151;DHT22;25866;52.420;10.640;2022-07-05T03:24:03;14.60;99.90
40151;DHT22;25866;52.420;10.640;2022-07-05T03:26:29;14.60;99.90
40151;DHT22;25866;52.420;10.640;2022-07-05T03:28:55;14.50;99.90
40151;DHT22;25866;52.420;10.640;2022-07-05T03:31:20;14.40;99.90
40151;DHT22;25866;52.420;10.640;2022-07-05T03:33:46;14.30;99.90
40151;DHT22;25866;52.420;10.640;2022-07-05T03:36:12;14.30;99.90
40151;DHT22;25866;52.420;10.640;2022-07-05T03:38:37;14.50;99.90
40151;DHT22;25866;52.420;10.640;2022-07-05T03:41:03;14.60;99.90
40151;DHT22;25866;52.420;10.640;2022-07-05T03:43:29;14.60;99.90
40151;DHT22;25866;52.420;10.640;2022-07-05T03:45:55;14.60;99.90
40151;DHT22;25866;52.420;10.640;2022-07-05T03:48:21;14.80;99.90
40151;DHT22;25866;52.420;10.640;2022-07-05T03:50:47;14.90;99.90
40151;DHT22;25866;52.420;10.640;2022-07-05T03:53:12;15.00;99.90
40151;DHT22;25866;52.420;10.640;2022-07-05T03:55:38;15.00;99.90
40151;DHT22;25866;52.420;10.640;2022-07-05T03:58:04;14.90;99.90
40151;DHT22;25866;52.420;10.640;2022-07-05T04:00:30;14.90;99.90
40151;DHT22;25866;52.420;10.640;2022-07-05T04:02:55;14.90;99.90
40151;DHT22;25866;52.420;10.640;2022-07-05T04:05:22;14.80;99.90
40151;DHT22;25866;52.420;10.640;2022-07-05T04:07:53;14.70;99.90
40151;DHT22;25866;52.420;10.640;2022-07-05T04:10:19;14.80;99.90
40151;DHT22;25866;52.420;10.640;2022-07-05T04:12:46;14.80;99.90
40151;DHT22;25866;52.420;10.640;2022-07-05T04:15:14;14.70;99.90
40151;DHT22;25866;52.420;10.640;2022-07-05T04:17:53;14.80;99.90
40151;DHT22;25866;52.420;10.640;2022-07-05T04:20:21;14.80;99.90
40151;DHT22;25866;52.420;10.640;2022-07-05T04:22:48;14.90;99.90
40151;DHT22;25866;52.420;10.640;2022-07-05T04:25:15;15.10;99.90
40151;DHT22;25866;52.420;10.640;2022-07-05T04:27:50;15.20;99.90
40151;DHT22;25866;52.420;10.640;2022-07-05T04:30:16;15.20;99.90
40151;DHT22;25866;52.420;10.640;2022-07-05T04:32:43;15.30;99.90
40151;DHT22;25866;52.420;10.640;2022-07-05T04:35:09;15.30;99.90
40151;DHT22;25866;52.420;10.640;2022-07-05T04:37:35;15.40;99.90
40151;DHT22;25866;52.420;10.640;2022-07-05T04:40:00;15.50;99.90
40151;DHT22;25866;52.420;10.640;2022-07-05T04:42:26;15.50;99.90
40151;DHT22;25866;52.420;10.640;2022-07-05T04:44:52;15.60;99.90
40151;DHT22;25866;52.420;10.640;2022-07-05T04:47:17;15.60;99.90
40151;DHT22;25866;52.420;10.640;2022-07-05T04:49:43;15.70;99.90
40151;DHT22;25866;52.420;10.640;2022-07-05T04:52:09;15.70;99.90
40151;DHT22;25866;52.420;10.640;2022-07-05T04:54:36;15.80;99.90
40151;DHT22;25866;52.420;10.640;2022-07-05T04:57:03;15.80;99.90
40151;DHT22;25866;52.420;10.640;2022-07-05T04:59:29;15.80;99.90
40151;DHT22;25866;52.420;10.640;2022-07-05T05:01:54;15.80;99.90
40151;DHT22;25866;52.420;10.640;2022-07-05T05:04:20;15.90;99.90
40151;DHT22;25866;52.420;10.640;2022-07-05T05:06:47;16.00;99.90
40151;DHT22;25866;52.420;10.640;2022-07-05T05:09:13;16.10;99.90
40151;DHT22;25866;52.420;10.640;2022-07-05T05:11:39;16.20;99.90
40151;DHT22;25866;52.420;10.640;2022-07-05T05:14:04;16.30;99.90
40151;DHT22;25866;52.420;10.640;2022-07-05T05:16:32;16.20;99.90
40151;DHT22;25866;52.420;10.640;2022-07-05T05:18:58;16.30;99.90
40151;DHT22;25866;52.420;10.640;2022-07-05T05:21:23;16.40;99.90
40151;DHT22;25866;52.420;10.640;2022-07-05T05:23:49;16.40;99.90
40151;DHT22;25866;52.420;10.640;2022-07-05T05:26:15;16.40;99.90
40151;DHT22;25866;52.420;10.640;2022-07-05T05:28:40;16.50;99.90
40151;DHT22;25866;52.420;10.640;2022-07-05T05:31:07;16.50;99.90
40151;DHT22;25866;52.420;10.640;2022-07-05T05:33:33;16.70;99.90
40151;DHT22;25866;52.420;10.640;2022-07-05T05:36:01;16.70;99.90
40151;DHT22;25866;52.420;10.640;2022-07-05T05:38:27;16.80;99.90
40151;DHT22;25866;52.420;10.640;2022-07-05T05:40:52;16.90;99.90
40151;DHT22;25866;52.420;10.640;2022-07-05T05:43:18;16.90;99.90
40151;DHT22;25866;52.420;10.640;2022-07-05T05:45:47;17.00;99.90
40151;DHT22;25866;52.420;10.640;2022-07-05T05:48:13;17.10;99.90
40151;DHT22;25866;52.420;10.640;2022-07-05T05:50:39;17.20;99.90
40151;DHT22;25866;52.420;10.640;2022-07-05T05:53:05;17.30;99.90
40151;DHT22;25866;52.420;10.640;2022-07-05T05:55:31;17.30;99.90
40151;DHT22;25866;52.420;10.640;2022-07-05T05:58:09;17.30;99.90
40151;DHT22;25866;52.420;10.640;2022-07-05T06:00:35;17.30;99.90
40151;DHT22;25866;52.420;10.640;2022-07-05T06:03:01;17.30;99.90
40151;DHT22;25866;52.420;10.640;2022-07-05T06:05:26;17.30;99.90
40151;DHT22;25866;52.420;10.640;2022-07-05T06:07:55;17.30;99.90
40151;DHT22;25866;52.420;10.640;2022-07-05T06:10:24;17.40;99.90
40151;DHT22;25866;52.420;10.640;2022-07-05T06:12:51;17.40;99.90
40151;DHT22;25866;52.420;10.640;2022-07-05T06:15:17;17.50;99.90
40151;DHT22;25866;52.420;10.640;2022-07-05T06:17:43;17.50;99.90
40151;DHT22;25866;52.420;10.640;2022-07-05T06:20:11;17.50;99.90
40151;DHT22;25866;52.420;10.640;2022-07-05T06:22:39;17.60;99.90
40151;DHT22;25866;52.420;10.640;2022-07-05T06:25:05;17.60;99.90
40151;DHT22;25866;52.420;10.640;2022-07-05T06:27:31;17.70;99.90
40151;DHT22;25866;52.420;10.640;2022-07-05T06:29:57;17.70;99.90
40151;DHT22;25866;52.420;10.640;2022-07-05T06:32:24;17.80;99.90
40151;DHT22;25866;52.420;10.640;2022-07-05T06:34:49;17.90;99.90
40151;DHT22;25866;52.420;10.640;2022-07-05T06:37:15;18.00;99.90
40151;DHT22;25866;52.420;10.640;2022-07-05T06:39:41;18.00;99.90
40151;DHT22;25866;52.420;10.640;2022-07-05T06:42:06;18.10;99.90
40151;DHT22;25866;52.420;10.640;2022-07-05T06:44:32;18.20;99.90
40151;DHT22;25866;52.420;10.640;2022-07-05T06:46:58;18.30;99.90
40151;DHT22;25866;52.420;10.640;2022-07-05T06:49:24;18.40;99.90
40151;DHT22;25866;52.420;10.640;2022-07-05T06:51:50;18.40;99.90
40151;DHT22;25866;52.420;10.640;2022-07-05T06:54:16;18.40;99.90
40151;DHT22;25866;52.420;10.640;2022-07-05T06:56:41;18.50;99.90
40151;DHT22;25866;52.420;10.640;2022-07-05T06:59:07;18.60;99.90
40151;DHT22;25866;52.420;10.640;2022-07-05T07:01:32;18.70;99.90
40151;DHT22;25866;52.420;10.640;2022-07-05T07:03:58;18.90;99.90
40151;DHT22;25866;52.420;10.640;2022-07-05T07:06:24;19.10;99.90
40151;DHT22;25866;52.420;10.640;2022-07-05T07:08:50;19.30;99.90
40151;DHT22;25866;52.420;10.640;2022-07-05T07:11:34;19.50;99.80
40151;DHT22;25866;52.420;10.640;2022-07-05T07:14:00;19.80;99.90
40151;DHT22;25866;52.420;10.640;2022-07-05T07:16:26;19.80;99.40
40151;DHT22;25866;52.420;10.640;2022-07-05T07:18:52;19.70;99.10
40151;DHT22;25866;52.420;10.640;2022-07-05T07:21:18;19.50;99.10
40151;DHT22;25866;52.420;10.640;2022-07-05T07:23:43;19.40;99.50
40151;DHT22;25866;52.420;10.640;2022-07-05T07:26:09;19.40;99.90
40151;DHT22;25866;52.420;10.640;2022-07-05T07:28:35;19.60;99.70
40151;DHT22;25866;52.420;10.640;2022-07-05T07:31:00;19.60;99.30
40151;DHT22;25866;52.420;10.640;2022-07-05T07:33:26;19.80;99.00
40151;DHT22;25866;52.420;10.640;2022-07-05T07:35:51;19.70;99.50
40151;DHT22;25866;52.420;10.640;2022-07-05T07:38:17;19.70;99.60
40151;DHT22;25866;52.420;10.640;2022-07-05T07:40:43;19.70;99.60
40151;DHT22;25866;52.420;10.640;2022-07-05T07:43:09;19.90;98.70
40151;DHT22;25866;52.420;10.640;2022-07-05T07:45:34;20.10;98.20
40151;DHT22;25866;52.420;10.640;2022-07-05T07:48:00;20.40;98.50
40151;DHT22;25866;52.420;10.640;2022-07-05T07:50:26;20.50;97.30
40151;DHT22;25866;52.420;10.640;2022-07-05T07:52:51;20.30;97.00
40151;DHT22;25866;52.420;10.640;2022-07-05T07:55:17;20.40;97.40
40151;DHT22;25866;52.420;10.640;2022-07-05T07:57:43;20.60;97.00
40151;DHT22;25866;52.420;10.640;2022-07-05T08:00:09;20.90;96.70
40151;DHT22;25866;52.420;10.640;2022-07-05T08:02:34;21.10;95.90
40151;DHT22;25866;52.420;10.640;2022-07-05T08:05:00;21.10;94.70
40151;DHT22;25866;52.420;10.640;2022-07-05T08:07:27;21.00;94.30
40151;DHT22;25866;52.420;10.640;2022-07-05T08:09:52;20.80;94.80
40151;DHT22;25866;52.420;10.640;2022-07-05T08:12:21;20.80;94.80
40151;DHT22;25866;52.420;10.640;2022-07-05T08:14:47;20.70;94.50
40151;DHT22;25866;52.420;10.640;2022-07-05T08:17:13;20.50;94.80
40151;DHT22;25866;52.420;10.640;2022-07-05T08:19:38;20.30;95.30
40151;DHT22;25866;52.420;10.640;2022-07-05T08:22:23;20.10;95.50
40151;DHT22;25866;52.420;10.640;2022-07-05T08:24:49;20.00;95.60
40151;DHT22;25866;52.420;10.640;2022-07-05T08:27:15;20.00;96.10
40151;DHT22;25866;52.420;10.640;2022-07-05T08:29:42;19.90;95.80
40151;DHT22;25866;52.420;10.640;2022-07-05T08:32:09;19.80;96.10
40151;DHT22;25866;52.420;10.640;2022-07-05T08:34:35;19.90;96.60
40151;DHT22;25866;52.420;10.640;2022-07-05T08:37:01;20.30;96.10
40151;DHT22;25866;52.420;10.640;2022-07-05T08:39:28;20.90;94.90
40151;DHT22;25866;52.420;10.640;2022-07-05T08:41:55;21.40;95.30
40151;DHT22;25866;52.420;10.640;2022-07-05T08:44:24;21.80;93.80
40151;DHT22;25866;52.420;10.640;2022-07-05T08:46:52;21.90;92.60
40151;DHT22;25866;52.420;10.640;2022-07-05T08:49:26;21.80;91.50
40151;DHT22;25866;52.420;10.640;2022-07-05T08:51:54;21.80;91.60
40151;DHT22;25866;52.420;10.640;2022-07-05T08:54:22;21.70;90.80
40151;DHT22;25866;52.420;10.640;2022-07-05T08:56:48;21.40;91.90
40151;DHT22;25866;52.420;10.640;2022-07-05T08:59:14;21.50;91.60
40151;DHT22;25866;52.420;10.640;2022-07-05T09:01:40;21.70;92.10
40151;DHT22;25866;52.420;10.640;2022-07-05T09:04:08;21.80;92.80
40151;DHT22;25866;52.420;10.640;2022-07-05T09:06:38;21.80;92.00
40151;DHT22;25866;52.420;10.640;2022-07-05T09:09:05;21.80;90.50
40151;DHT22;25866;52.420;10.640;2022-07-05T09:11:38;22.00;91.40
40151;DHT22;25866;52.420;10.640;2022-07-05T09:14:06;21.90;90.90
40151;DHT22;25866;52.420;10.640;2022-07-05T09:16:33;22.00;90.00
40151;DHT22;25866;52.420;10.640;2022-07-05T09:19:07;22.20;91.40
40151;DHT22;25866;52.420;10.640;2022-07-05T09:21:33;22.70;90.90
40151;DHT22;25866;52.420;10.640;2022-07-05T09:24:02;23.00;91.80
40151;DHT22;25866;52.420;10.640;2022-07-05T09:26:36;23.10;85.90
40151;DHT22;25866;52.420;10.640;2022-07-05T09:29:10;23.00;87.90
40151;DHT22;25866;52.420;10.640;2022-07-05T09:31:38;22.90;88.60
40151;DHT22;25866;52.420;10.640;2022-07-05T09:34:22;22.80;89.40
40151;DHT22;25866;52.420;10.640;2022-07-05T09:37:03;23.00;84.30
40151;DHT22;25866;52.420;10.640;2022-07-05T09:42:20;23.50;85.20
40151;DHT22;25866;52.420;10.640;2022-07-05T09:44:57;23.60;83.10
40151;DHT22;25866;52.420;10.640;2022-07-05T09:47:24;23.80;81.80
40151;DHT22;25866;52.420;10.640;2022-07-05T09:49:54;23.80;82.80
40151;DHT22;25866;52.420;10.640;2022-07-05T09:55:06;23.80;82.80
40151;DHT22;25866;52.420;10.640;2022-07-05T09:57:33;23.80;81.10
40151;DHT22;25866;52.420;10.640;2022-07-05T10:00:23;23.80;81.40
40151;DHT22;25866;52.420;10.640;2022-07-05T10:02:55;23.50;79.60
40151;DHT22;25866;52.420;10.640;2022-07-05T10:05:29;23.30;81.10
40151;DHT22;25866;52.420;10.640;2022-07-05T10:07:56;23.20;82.90
40151;DHT22;25866;52.420;10.640;2022-07-05T10:10:27;23.30;84.00
40151;DHT22;25866;52.420;10.640;2022-07-05T10:12:56;23.40;80.10
40151;DHT22;25866;52.420;10.640;2022-07-05T10:15:26;23.20;79.70
40151;DHT22;25866;52.420;10.640;2022-07-05T10:18:07;23.00;82.10
40151;DHT22;25866;52.420;10.640;2022-07-05T10:23:13;23.30;81.60
40151;DHT22;25866;52.420;10.640;2022-07-05T10:25:41;23.60;81.50
40151;DHT22;25866;52.420;10.640;2022-07-05T10:28:09;24.10;79.80
40151;DHT22;25866;52.420;10.640;2022-07-05T10:30:35;24.10;78.70
40151;DHT22;25866;52.420;10.640;2022-07-05T10:33:02;24.00;77.80
40151;DHT22;25866;52.420;10.640;2022-07-05T10:35:29;23.60;79.20
40151;DHT22;25866;52.420;10.640;2022-07-05T10:37:55;23.30;78.70
40151;DHT22;25866;52.420;10.640;2022-07-05T10:40:22;23.10;80.40
40151;DHT22;25866;52.420;10.640;2022-07-05T10:42:52;23.30;80.80
40151;DHT22;25866;52.420;10.640;2022-07-05T10:45:34;23.30;79.60
40151;DHT22;25866;52.420;10.640;2022-07-05T10:48:23;23.40;78.20
40151;DHT22;25866;52.420;10.640;2022-07-05T10:53:30;23.60;79.30
40151;DHT22;25866;52.420;10.640;2022-07-05T10:56:14;23.30;78.40
40151;DHT22;25866;52.420;10.640;2022-07-05T11:03:43;23.40;78.50
40151;DHT22;25866;52.420;10.640;2022-07-05T11:06:19;23.60;80.40
40151;DHT22;25866;52.420;10.640;2022-07-05T11:11:35;24.40;77.60
40151;DHT22;25866;52.420;10.640;2022-07-05T11:14:29;24.40;77.20
40151;DHT22;25866;52.420;10.640;2022-07-05T11:17:11;24.60;78.50
40151;DHT22;25866;52.420;10.640;2022-07-05T11:22:27;24.80;75.40
40151;DHT22;25866;52.420;10.640;2022-07-05T11:24:53;24.70;76.50
40151;DHT22;25866;52.420;10.640;2022-07-05T11:27:20;24.40;76.50
40151;DHT22;25866;52.420;10.640;2022-07-05T11:29:50;24.30;77.00
40151;DHT22;25866;52.420;10.640;2022-07-05T11:32:17;24.50;77.90
40151;DHT22;25866;52.420;10.640;2022-07-05T11:34:45;24.80;76.10
40151;DHT22;25866;52.420;10.640;2022-07-05T11:37:18;25.00;74.40
40151;DHT22;25866;52.420;10.640;2022-07-05T11:42:31;25.60;75.20
40151;DHT22;25866;52.420;10.640;2022-07-05T11:44:59;25.80;72.60
40151;DHT22;25866;52.420;10.640;2022-07-05T11:47:25;25.50;73.60
40151;DHT22;25866;52.420;10.640;2022-07-05T11:49:56;25.20;74.70
40151;DHT22;25866;52.420;10.640;2022-07-05T11:52:29;24.70;74.80
40151;DHT22;25866;52.420;10.640;2022-07-05T11:55:00;24.70;75.70
40151;DHT22;25866;52.420;10.640;2022-07-05T11:57:26;24.90;73.90
40151;DHT22;25866;52.420;10.640;2022-07-05T11:59:56;25.10;73.80
40151;DHT22;25866;52.420;10.640;2022-07-05T12:02:23;25.30;73.10
40151;DHT22;25866;52.420;10.640;2022-07-05T12:04:53;25.50;72.70
40151;DHT22;25866;52.420;10.640;2022-07-05T12:09:52;26.00;73.50
40151;DHT22;25866;52.420;10.640;2022-07-05T12:12:35;26.20;69.10
40151;DHT22;25866;52.420;10.640;2022-07-05T12:15:15;26.10;71.30
40151;DHT22;25866;52.420;10.640;2022-07-05T12:17:46;26.10;69.40
40151;DHT22;25866;52.420;10.640;2022-07-05T12:20:13;25.70;71.20
40151;DHT22;25866;52.420;10.640;2022-07-05T12:22:44;25.70;71.80
40151;DHT22;25866;52.420;10.640;2022-07-05T12:25:22;25.70;70.20
40151;DHT22;25866;52.420;10.640;2022-07-05T12:27:50;25.60;70.20
40151;DHT22;25866;52.420;10.640;2022-07-05T12:30:16;25.30;70.40
40151;DHT22;25866;52.420;10.640;2022-07-05T12:35:31;24.80;72.10
40151;DHT22;25866;52.420;10.640;2022-07-05T12:38:06;25.10;70.20
40151;DHT22;25866;52.420;10.640;2022-07-05T12:40:32;25.00;70.60
40151;DHT22;25866;52.420;10.640;2022-07-05T12:43:09;25.40;71.20
40151;DHT22;25866;52.420;10.640;2022-07-05T12:45:37;25.70;70.20
40151;DHT22;25866;52.420;10.640;2022-07-05T12:48:04;25.90;69.90
40151;DHT22;25866;52.420;10.640;2022-07-05T12:50:50;25.70;70.00
40151;DHT22;25866;52.420;10.640;2022-07-05T12:53:18;25.40;67.90
40151;DHT22;25866;52.420;10.640;2022-07-05T12:56:09;25.20;70.30
40151;DHT22;25866;52.420;10.640;2022-07-05T12:59:04;25.30;70.60
40151;DHT22;25866;52.420;10.640;2022-07-05T13:01:41;25.40;68.50
40151;DHT22;25866;52.420;10.640;2022-07-05T13:04:17;25.50;67.60
40151;DHT22;25866;52.420;10.640;2022-07-05T13:09:36;25.70;68.20
40151;DHT22;25866;52.420;10.640;2022-07-05T13:12:19;26.00;69.50
40151;DHT22;25866;52.420;10.640;2022-07-05T13:14:52;26.10;67.10
40151;DHT22;25866;52.420;10.640;2022-07-05T13:17:20;26.00;66.10
40151;DHT22;25866;52.420;10.640;2022-07-05T13:19:48;26.20;67.10
40151;DHT22;25866;52.420;10.640;2022-07-05T13:22:14;26.00;67.60
40151;DHT22;25866;52.420;10.640;2022-07-05T13:24:41;25.60;68.20
40151;DHT22;25866;52.420;10.640;2022-07-05T13:27:07;25.70;66.70
40151;DHT22;25866;52.420;10.640;2022-07-05T13:29:33;25.90;68.50
40151;DHT22;25866;52.420;10.640;2022-07-05T13:31:59;26.20;69.00
40151;DHT22;25866;52.420;10.640;2022-07-05T13:34:25;26.40;66.30
40151;DHT22;25866;52.420;10.640;2022-07-05T13:36:57;26.30;67.00
40151;DHT22;25866;52.420;10.640;2022-07-05T13:39:23;26.40;66.30
40151;DHT22;25866;52.420;10.640;2022-07-05T13:41:51;26.40;66.60
40151;DHT22;25866;52.420;10.640;2022-07-05T13:44:17;26.40;66.20
40151;DHT22;25866;52.420;10.640;2022-07-05T13:46:43;26.60;67.80
40151;DHT22;25866;52.420;10.640;2022-07-05T13:49:09;26.40;64.60
40151;DHT22;25866;52.420;10.640;2022-07-05T13:51:35;25.70;66.50
40151;DHT22;25866;52.420;10.640;2022-07-05T13:54:01;25.30;67.60
40151;DHT22;25866;52.420;10.640;2022-07-05T13:56:27;25.30;68.40
40151;DHT22;25866;52.420;10.640;2022-07-05T13:58:54;25.50;68.40
40151;DHT22;25866;52.420;10.640;2022-07-05T14:01:21;25.70;66.70
40151;DHT22;25866;52.420;10.640;2022-07-05T14:03:55;25.80;67.70
40151;DHT22;25866;52.420;10.640;2022-07-05T14:06:22;25.70;67.90
40151;DHT22;25866;52.420;10.640;2022-07-05T14:08:48;25.70;68.70
40151;DHT22;25866;52.420;10.640;2022-07-05T14:11:14;25.90;68.20
40151;DHT22;25866;52.420;10.640;2022-07-05T14:13:40;26.00;69.60
40151;DHT22;25866;52.420;10.640;2022-07-05T14:16:07;26.40;67.80
40151;DHT22;25866;52.420;10.640;2022-07-05T14:18:33;26.60;66.60
40151;DHT22;25866;52.420;10.640;2022-07-05T14:20:59;26.70;66.30
40151;DHT22;25866;52.420;10.640;2022-07-05T14:23:26;26.70;66.80
40151;DHT22;25866;52.420;10.640;2022-07-05T14:25:51;26.80;66.20
40151;DHT22;25866;52.420;10.640;2022-07-05T14:28:17;26.70;65.60
40151;DHT22;25866;52.420;10.640;2022-07-05T14:30:44;26.30;64.70
40151;DHT22;25866;52.420;10.640;2022-07-05T14:33:12;25.80;65.40
40151;DHT22;25866;52.420;10.640;2022-07-05T14:35:38;25.70;66.50
40151;DHT22;25866;52.420;10.640;2022-07-05T14:38:04;25.60;66.30
40151;DHT22;25866;52.420;10.640;2022-07-05T14:40:30;25.00;67.70
40151;DHT22;25866;52.420;10.640;2022-07-05T14:42:57;24.60;67.80
40151;DHT22;25866;52.420;10.640;2022-07-05T14:45:26;24.40;69.70
40151;DHT22;25866;52.420;10.640;2022-07-05T14:47:52;24.30;67.10
40151;DHT22;25866;52.420;10.640;2022-07-05T14:50:18;24.20;68.70
40151;DHT22;25866;52.420;10.640;2022-07-05T14:52:46;24.40;68.60
40151;DHT22;25866;52.420;10.640;2022-07-05T14:55:12;24.50;66.70
40151;DHT22;25866;52.420;10.640;2022-07-05T14:57:38;24.80;65.90
40151;DHT22;25866;52.420;10.640;2022-07-05T15:00:12;25.00;67.80
40151;DHT22;25866;52.420;10.640;2022-07-05T15:02:39;25.20;68.40
40151;DHT22;25866;52.420;10.640;2022-07-05T15:05:05;25.60;69.20
40151;DHT22;25866;52.420;10.640;2022-07-05T15:07:31;25.80;67.50
40151;DHT22;25866;52.420;10.640;2022-07-05T15:09:57;26.00;66.60
40151;DHT22;25866;52.420;10.640;2022-07-05T15:12:23;25.80;65.40
40151;DHT22;25866;52.420;10.640;2022-07-05T15:14:48;25.70;65.10
40151;DHT22;25866;52.420;10.640;2022-07-05T15:17:14;25.50;66.20
40151;DHT22;25866;52.420;10.640;2022-07-05T15:19:40;25.40;67.60
40151;DHT22;25866;52.420;10.640;2022-07-05T15:22:06;25.30;67.70
40151;DHT22;25866;52.420;10.640;2022-07-05T15:24:32;25.40;67.20
40151;DHT22;25866;52.420;10.640;2022-07-05T15:26:58;25.40;66.80
40151;DHT22;25866;52.420;10.640;2022-07-05T15:29:24;25.20;68.40
40151;DHT22;25866;52.420;10.640;2022-07-05T15:31:55;25.00;66.70
40151;DHT22;25866;52.420;10.640;2022-07-05T15:34:20;24.70;66.40
40151;DHT22;25866;52.420;10.640;2022-07-05T15:36:47;24.40;67.70
40151;DHT22;25866;52.420;10.640;2022-07-05T15:39:12;24.30;68.30
40151;DHT22;25866;52.420;10.640;2022-07-05T15:41:38;24.40;68.50
40151;DHT22;25866;52.420;10.640;2022-07-05T15:44:04;24.60;67.90
40151;DHT22;25866;52.420;10.640;2022-07-05T15:46:30;24.70;69.20
40151;DHT22;25866;52.420;10.640;2022-07-05T15:49:14;24.80;67.40
40151;DHT22;25866;52.420;10.640;2022-07-05T15:51:40;24.60;69.40